Time,TemperatureF,DewpointF,PressureIn,WindDirection,WindDirectionDegrees,WindSpeedMPH,WindSpeedGustMPH,Humidity,HourlyPrecipIn,Conditions,Clouds,dailyrainin,SoftwareType,DateUTC
2013-01-23 00:04:00,21.6,15.1,29.97,East,90,1.1,1.1,76,0.00,,,0.00,WUHU216HW,2013-01-23 07:04:00,
2013-01-23 00:14:00,21.4,14.9,29.97,ESE,113,0.4,0.9,76,0.00,,,0.00,WUHU216HW,2013-01-23 07:14:00,
2013-01-23 00:24:00,21.2,14.8,29.97,East,90,0.2,0.7,76,0.00,,,0.00,WUHU216HW,2013-01-23 07:24:00,
2013-01-23 00:34:00,21.1,15.0,29.97,East,90,2.0,2.0,77,0.00,,,0.00,WUHU216HW,2013-01-23 07:34:00,
2013-01-23 00:44:00,20.9,14.8,29.97,East,90,0.7,1.8,77,0.00,,,0.00,WUHU216HW,2013-01-23 07:44:00,
2013-01-23 00:54:00,20.9,14.8,29.97,ESE,113,0.2,0.4,77,0.00,,,0.00,WUHU216HW,2013-01-23 07:54:00,
2013-01-23 01:04:00,21.1,15.2,29.97,East,90,0.2,0.2,78,0.00,,,0.00,WUHU216HW,2013-01-23 08:04:00,
2013-01-23 01:14:00,21.1,15.2,29.97,ESE,113,0.0,0.4,78,0.00,,,0.00,WUHU216HW,2013-01-23 08:14:00,
2013-01-23 01:24:00,20.9,15.0,29.96,SE,135,0.4,0.4,78,0.00,,,0.00,WUHU216HW,2013-01-23 08:24:00,
2013-01-23 01:35:00,20.9,15.0,29.95,NE,45,0.0,0.4,78,0.00,,,0.00,WUHU216HW,2013-01-23 08:35:00,
2013-01-23 01:45:00,20.9,15.0,29.95,WSW,248,0.4,0.9,78,0.00,,,0.00,WUHU216HW,2013-01-23 08:45:00,
2013-01-23 01:55:00,20.7,14.9,29.95,SSE,158,0.0,1.1,78,0.00,,,0.00,WUHU216HW,2013-01-23 08:55:00,
2013-01-23 02:05:00,20.7,14.9,29.95,SSW,203,0.0,0.4,78,0.00,,,0.00,WUHU216HW,2013-01-23 09:05:00,
2013-01-23 02:15:00,20.7,15.2,29.96,WSW,248,0.0,0.0,79,0.00,,,0.00,WUHU216HW,2013-01-23 09:15:00,
2013-01-23 02:25:00,20.9,15.4,29.97,WSW,248,0.0,0.0,79,0.00,,,0.00,WUHU216HW,2013-01-23 09:25:00,
2013-01-23 02:35:00,20.7,15.2,29.97,SSW,203,0.0,0.4,79,0.00,,,0.00,WUHU216HW,2013-01-23 09:35:00,
2013-01-23 02:45:00,20.9,15.4,29.97,SSW,203,1.8,1.8,79,0.00,,,0.00,WUHU216HW,2013-01-23 09:45:00,
2013-01-23 02:55:00,20.9,15.4,29.97,South,180,2.7,2.9,79,0.00,,,0.00,WUHU216HW,2013-01-23 09:55:00,
2013-01-23 03:05:00,20.7,15.2,29.97,SE,135,0.4,2.9,79,0.00,,,0.00,WUHU216HW,2013-01-23 10:05:00,
2013-01-23 03:15:00,20.5,15.0,29.97,South,180,0.7,1.8,79,0.00,,,0.00,WUHU216HW,2013-01-23 10:15:00,
2013-01-23 03:25:00,20.5,15.0,29.97,South,180,2.5,2.5,79,0.00,,,0.00,WUHU216HW,2013-01-23 10:25:00,
2013-01-23 03:35:00,20.3,14.9,29.97,SSW,203,3.6,4.0,79,0.00,,,0.00,WUHU216HW,2013-01-23 10:35:00,
2013-01-23 03:45:00,20.0,14.8,29.96,SSE,158,2.7,4.3,80,0.00,,,0.00,WUHU216HW,2013-01-23 10:45:00,
2013-01-23 03:55:00,19.8,14.6,29.97,South,180,6.3,6.3,80,0.00,,,0.00,WUHU216HW,2013-01-23 10:55:00,
2013-01-23 04:05:00,19.6,14.4,29.97,SSE,158,1.8,4.7,80,0.00,,,0.00,WUHU216HW,2013-01-23 11:05:00,
2013-01-23 04:16:00,19.6,14.4,29.97,ESE,113,0.2,1.1,80,0.00,,,0.00,WUHU216HW,2013-01-23 11:16:00,
2013-01-23 04:26:00,19.6,14.4,29.97,SSE,158,0.4,1.1,80,0.00,,,0.00,WUHU216HW,2013-01-23 11:26:00,
2013-01-23 04:36:00,19.6,14.7,29.97,SSE,158,0.9,2.2,81,0.00,,,0.00,WUHU216HW,2013-01-23 11:36:00,
2013-01-23 04:46:00,19.8,14.9,29.96,SE,135,0.0,2.0,81,0.00,,,0.00,WUHU216HW,2013-01-23 11:46:00,
2013-01-23 04:56:00,19.8,14.9,29.96,North,0,0.4,0.4,81,0.00,,,0.00,WUHU216HW,2013-01-23 11:56:00,
2013-01-23 05:06:00,19.8,14.6,29.96,North,0,0.9,0.9,80,0.00,,,0.00,WUHU216HW,2013-01-23 12:06:00,
2013-01-23 05:16:00,19.4,14.2,29.96,SSW,203,0.0,0.7,80,0.00,,,0.00,WUHU216HW,2013-01-23 12:16:00,
2013-01-23 05:26:00,19.4,14.2,29.96,ESE,113,0.0,0.7,80,0.00,,,0.00,WUHU216HW,2013-01-23 12:26:00,
2013-01-23 05:37:00,19.4,14.2,29.95,SE,135,0.7,0.7,80,0.00,,,0.00,WUHU216HW,2013-01-23 12:37:00,
2013-01-23 05:47:00,19.4,14.2,29.95,SSW,203,0.0,0.9,80,0.00,,,0.00,WUHU216HW,2013-01-23 12:47:00,
2013-01-23 05:57:00,19.4,14.2,29.96,South,180,0.0,0.0,80,0.00,,,0.00,WUHU216HW,2013-01-23 12:57:00,
2013-01-23 06:07:00,19.3,14.0,29.96,ESE,113,0.0,0.4,80,0.00,,,0.00,WUHU216HW,2013-01-23 13:07:00,
2013-01-23 06:17:00,19.3,14.0,29.95,ESE,113,0.0,0.0,80,0.00,,,0.00,WUHU216HW,2013-01-23 13:17:00,
2013-01-23 06:27:00,19.3,14.0,29.94,South,180,0.4,0.4,80,0.00,,,0.00,WUHU216HW,2013-01-23 13:27:00,
2013-01-23 06:37:00,19.1,13.9,29.94,SSW,203,0.7,1.3,80,0.00,,,0.00,WUHU216HW,2013-01-23 13:37:00,
2013-01-23 06:48:00,19.1,14.1,29.94,WSW,248,0.7,0.9,81,0.00,,,0.00,WUHU216HW,2013-01-23 13:48:00,
2013-01-23 06:58:00,19.3,14.3,29.95,WSW,248,0.0,0.2,81,0.00,,,0.00,WUHU216HW,2013-01-23 13:58:00,
2013-01-23 07:08:00,19.3,14.3,29.95,SE,135,0.4,1.1,81,0.00,,,0.00,WUHU216HW,2013-01-23 14:08:00,
2013-01-23 07:18:00,19.3,14.3,29.94,SE,135,0.0,0.0,81,0.00,,,0.00,WUHU216HW,2013-01-23 14:18:00,
2013-01-23 07:28:00,19.3,14.3,29.94,SE,135,0.0,0.0,81,0.00,,,0.00,WUHU216HW,2013-01-23 14:28:00,
2013-01-23 07:39:00,19.3,14.3,29.95,SE,135,0.0,0.2,81,0.00,,,0.00,WUHU216HW,2013-01-23 14:39:00,
2013-01-23 07:49:00,19.3,14.3,29.94,ESE,113,0.0,0.4,81,0.00,,,0.00,WUHU216HW,2013-01-23 14:49:00,
2013-01-23 07:59:00,19.3,14.3,29.94,SSW,203,0.0,0.9,81,0.00,,,0.00,WUHU216HW,2013-01-23 14:59:00,
2013-01-23 08:09:00,19.3,14.3,29.94,SSW,203,0.0,0.0,81,0.00,,,0.00,WUHU216HW,2013-01-23 15:09:00,
2013-01-23 08:19:00,19.3,14.3,29.94,South,180,0.0,0.4,81,0.00,,,0.00,WUHU216HW,2013-01-23 15:19:00,
2013-01-23 08:29:00,19.3,14.3,29.93,WSW,248,0.0,0.4,81,0.00,,,0.00,WUHU216HW,2013-01-23 15:29:00,
2013-01-23 08:39:00,19.4,14.8,29.93,WSW,248,0.0,0.0,82,0.00,,,0.00,WUHU216HW,2013-01-23 15:39:00,
2013-01-23 08:49:00,19.6,14.9,29.92,North,0,0.0,0.7,82,0.00,,,0.00,WUHU216HW,2013-01-23 15:49:00,
2013-01-23 08:59:00,19.6,14.7,29.93,North,0,0.0,0.0,81,0.00,,,0.00,WUHU216HW,2013-01-23 15:59:00,
2013-01-23 09:09:00,19.8,14.9,29.93,ESE,113,0.0,0.4,81,0.00,,,0.00,WUHU216HW,2013-01-23 16:09:00,
2013-01-23 09:19:00,20.0,15.0,29.94,NE,45,0.0,0.4,81,0.00,,,0.00,WUHU216HW,2013-01-23 16:19:00,
2013-01-23 09:29:00,20.3,15.4,29.93,NE,45,0.0,0.0,81,0.00,,,0.00,WUHU216HW,2013-01-23 16:29:00,
2013-01-23 09:40:00,20.7,15.8,29.93,NNW,338,0.2,0.7,81,0.00,,,0.00,WUHU216HW,2013-01-23 16:40:00,
2013-01-23 09:50:00,21.1,16.1,29.93,NNE,23,0.0,0.0,81,0.00,,,0.00,WUHU216HW,2013-01-23 16:50:00,
2013-01-23 10:00:00,21.8,16.8,29.93,NNE,23,0.0,0.0,81,0.00,,,0.00,WUHU216HW,2013-01-23 17:00:00,
2013-01-23 10:10:00,22.3,17.1,29.94,North,0,0.0,0.4,80,0.00,,,0.00,WUHU216HW,2013-01-23 17:10:00,
2013-01-23 10:20:00,22.5,17.3,29.93,NE,45,0.0,0.4,80,0.00,,,0.00,WUHU216HW,2013-01-23 17:20:00,
2013-01-23 10:30:00,22.7,17.2,29.93,NW,315,1.8,1.8,79,0.00,,,0.00,WUHU216HW,2013-01-23 17:30:00,
2013-01-23 10:40:00,22.7,17.2,29.92,NE,45,0.4,0.9,79,0.00,,,0.00,WUHU216HW,2013-01-23 17:40:00,
2013-01-23 10:50:00,23.0,17.6,29.92,NNE,23,0.4,1.3,79,0.00,,,0.00,WUHU216HW,2013-01-23 17:50:00,
2013-01-23 11:00:00,23.2,17.4,29.93,North,0,0.4,0.4,78,0.00,,,0.00,WUHU216HW,2013-01-23 18:00:00,
2013-01-23 11:10:00,23.8,17.9,29.93,NNE,23,0.9,0.9,78,0.00,,,0.00,WUHU216HW,2013-01-23 18:10:00,
2013-01-23 11:20:00,24.1,18.5,29.93,North,0,0.7,1.3,79,0.00,,,0.00,WUHU216HW,2013-01-23 18:20:00,
2013-01-23 11:30:00,24.7,18.8,29.93,NNE,23,0.0,0.7,78,0.00,,,0.00,WUHU216HW,2013-01-23 18:30:00,
2013-01-23 11:40:00,25.4,19.4,29.92,North,0,0.2,0.2,78,0.00,,,0.00,WUHU216HW,2013-01-23 18:40:00,
2013-01-23 11:50:00,25.7,19.5,29.90,NW,315,0.0,0.9,77,0.00,,,0.00,WUHU216HW,2013-01-23 18:50:00,
2013-01-23 12:00:00,25.9,19.4,29.91,North,0,0.2,0.7,76,0.00,,,0.00,WUHU216HW,2013-01-23 19:00:00,
2013-01-23 12:10:00,26.3,19.7,29.90,ENE,68,0.7,0.7,76,0.00,,,0.00,WUHU216HW,2013-01-23 19:10:00,
2013-01-23 12:20:00,27.0,20.3,29.89,ESE,113,0.0,1.1,76,0.00,,,0.00,WUHU216HW,2013-01-23 19:20:00,
2013-01-23 12:31:00,27.4,20.4,29.89,North,0,0.7,1.1,75,0.00,,,0.00,WUHU216HW,2013-01-23 19:31:00,
2013-01-23 12:41:00,27.0,20.1,29.89,North,0,0.7,1.6,75,0.00,,,0.00,WUHU216HW,2013-01-23 19:41:00,
2013-01-23 12:51:00,27.0,20.1,29.88,NNE,23,0.9,1.1,75,0.00,,,0.00,WUHU216HW,2013-01-23 19:51:00,
2013-01-23 13:01:00,27.2,20.0,29.88,WNW,293,0.4,1.6,74,0.00,,,0.00,WUHU216HW,2013-01-23 20:01:00,
2013-01-23 13:12:00,27.5,20.6,29.87,NNW,338,0.0,0.4,75,0.00,,,0.00,WUHU216HW,2013-01-23 20:12:00,
2013-01-23 13:22:00,28.3,21.3,29.86,NE,45,0.0,0.7,75,0.00,,,0.00,WUHU216HW,2013-01-23 20:22:00,
2013-01-23 13:32:00,28.4,20.9,29.85,North,0,0.0,0.4,73,0.00,,,0.00,WUHU216HW,2013-01-23 20:32:00,
2013-01-23 13:42:00,28.6,21.1,29.85,NNE,23,1.1,1.1,73,0.00,,,0.00,WUHU216HW,2013-01-23 20:42:00,
2013-01-23 13:52:00,29.3,21.8,29.84,North,0,0.9,1.1,73,0.00,,,0.00,WUHU216HW,2013-01-23 20:52:00,
2013-01-23 14:02:00,29.7,21.8,29.84,WNW,293,1.6,1.6,72,0.00,,,0.00,WUHU216HW,2013-01-23 21:02:00,
2013-01-23 14:12:00,29.7,21.4,29.84,North,0,0.2,1.1,71,0.00,,,0.00,WUHU216HW,2013-01-23 21:12:00,
2013-01-23 14:22:00,29.9,21.2,29.83,North,0,0.4,2.5,70,0.00,,,0.00,WUHU216HW,2013-01-23 21:22:00,
2013-01-23 14:32:00,29.3,20.4,29.83,North,0,1.8,2.0,69,0.00,,,0.00,WUHU216HW,2013-01-23 21:32:00,
2013-01-23 14:42:00,29.2,20.6,29.83,North,0,1.1,1.8,70,0.00,,,0.00,WUHU216HW,2013-01-23 21:42:00,
2013-01-23 14:52:00,29.9,21.2,29.82,North,0,1.1,2.5,70,0.00,,,0.00,WUHU216HW,2013-01-23 21:52:00,
2013-01-23 15:02:00,30.2,21.2,29.82,NE,45,1.8,2.2,69,0.00,,,0.00,WUHU216HW,2013-01-23 22:02:00,
2013-01-23 15:12:00,30.2,20.9,29.82,NNW,338,0.4,2.2,68,0.00,,,0.00,WUHU216HW,2013-01-23 22:12:00,
2013-01-23 15:22:00,30.2,20.9,29.82,NW,315,0.0,3.8,68,0.00,,,0.00,WUHU216HW,2013-01-23 22:22:00,
2013-01-23 15:32:00,30.6,21.2,29.81,NE,45,2.5,2.5,68,0.00,,,0.00,WUHU216HW,2013-01-23 22:32:00,
2013-01-23 15:42:00,30.6,20.9,29.81,North,0,0.9,2.2,67,0.00,,,0.00,WUHU216HW,2013-01-23 22:42:00,
2013-01-23 15:52:00,30.6,20.9,29.82,NE,45,1.1,2.7,67,0.00,,,0.00,WUHU216HW,2013-01-23 22:52:00,
2013-01-23 16:03:00,30.6,20.9,29.81,NE,45,1.8,3.4,67,0.00,,,0.00,WUHU216HW,2013-01-23 23:03:00,
2013-01-23 16:13:00,30.8,21.1,29.81,NNE,23,1.3,1.8,67,0.00,,,0.00,WUHU216HW,2013-01-23 23:13:00,
2013-01-23 16:23:00,31.0,21.2,29.81,West,270,1.1,2.0,67,0.00,,,0.00,WUHU216HW,2013-01-23 23:23:00,
2013-01-23 16:33:00,30.4,20.7,29.80,North,0,0.4,1.3,67,0.00,,,0.00,WUHU216HW,2013-01-23 23:33:00,
2013-01-23 16:43:00,30.2,20.5,29.80,NNE,23,0.2,1.8,67,0.00,,,0.00,WUHU216HW,2013-01-23 23:43:00,
2013-01-23 16:53:00,30.2,20.5,29.80,NW,315,2.5,2.5,67,0.00,,,0.00,WUHU216HW,2013-01-23 23:53:00,
2013-01-23 17:03:00,29.7,20.4,29.80,NNW,338,0.2,1.8,68,0.00,,,0.00,WUHU216HW,2013-01-24 00:03:00,
2013-01-23 17:14:00,29.5,20.6,29.80,NNE,23,0.0,1.1,69,0.00,,,0.00,WUHU216HW,2013-01-24 00:14:00,
2013-01-23 17:24:00,29.5,20.6,29.80,ENE,68,0.7,1.1,69,0.00,,,0.00,WUHU216HW,2013-01-24 00:24:00,
2013-01-23 17:34:00,29.2,20.3,29.79,NE,45,3.4,3.4,69,0.00,,,0.00,WUHU216HW,2013-01-24 00:34:00,
2013-01-23 17:44:00,29.2,20.6,29.81,SW,225,1.3,2.0,70,0.00,,,0.00,WUHU216HW,2013-01-24 00:44:00,
2013-01-23 17:54:00,29.0,20.4,29.81,SSW,203,0.0,1.8,70,0.00,,,0.00,WUHU216HW,2013-01-24 00:54:00,
2013-01-23 18:05:00,29.2,21.0,29.80,WNW,293,0.2,2.2,71,0.00,,,0.00,WUHU216HW,2013-01-24 01:05:00,
2013-01-23 18:16:00,29.3,21.4,29.81,South,180,2.9,2.9,72,0.00,,,0.00,WUHU216HW,2013-01-24 01:16:00,
2013-01-23 18:26:00,29.7,21.8,29.82,SSE,158,3.4,5.6,72,0.00,,,0.00,WUHU216HW,2013-01-24 01:26:00,
2013-01-23 18:36:00,29.9,22.0,29.82,South,180,5.1,6.7,72,0.00,,,0.00,WUHU216HW,2013-01-24 01:36:00,
2013-01-23 18:46:00,30.2,22.2,29.82,ESE,113,1.8,7.2,72,0.00,,,0.00,WUHU216HW,2013-01-24 01:46:00,
2013-01-23 18:57:00,30.6,22.6,29.82,SW,225,4.3,4.3,72,0.00,,,0.00,WUHU216HW,2013-01-24 01:57:00,
2013-01-23 19:07:00,30.6,22.3,29.83,North,0,2.0,2.9,71,0.00,,,0.00,WUHU216HW,2013-01-24 02:07:00,
2013-01-23 19:17:00,30.8,22.8,29.81,SE,135,0.2,1.6,72,0.00,,,0.00,WUHU216HW,2013-01-24 02:17:00,
2013-01-23 19:27:00,31.3,23.3,29.82,South,180,5.4,5.4,72,0.00,,,0.00,WUHU216HW,2013-01-24 02:27:00,
2013-01-23 19:37:00,31.3,23.1,29.81,East,90,3.8,3.8,71,0.00,,,0.00,WUHU216HW,2013-01-24 02:37:00,
2013-01-23 19:47:00,31.3,23.1,29.81,West,270,1.1,2.5,71,0.00,,,0.00,WUHU216HW,2013-01-24 02:47:00,
2013-01-23 19:57:00,31.1,23.1,29.80,NNE,23,0.0,1.8,72,0.00,,,0.00,WUHU216HW,2013-01-24 02:57:00,
2013-01-23 20:07:00,31.0,23.0,29.81,NW,315,1.1,1.3,72,0.00,,,0.00,WUHU216HW,2013-01-24 03:07:00,
2013-01-23 20:17:00,30.6,23.0,29.80,West,270,0.7,2.2,73,0.00,,,0.00,WUHU216HW,2013-01-24 03:17:00,
2013-01-23 20:28:00,31.0,23.3,29.79,WSW,248,0.4,1.1,73,0.00,,,0.00,WUHU216HW,2013-01-24 03:28:00,
2013-01-23 20:38:00,31.1,23.5,29.79,SE,135,1.8,2.9,73,0.00,,,0.00,WUHU216HW,2013-01-24 03:38:00,
2013-01-23 20:48:00,30.8,23.1,29.79,West,270,4.0,4.0,73,0.00,,,0.00,WUHU216HW,2013-01-24 03:48:00,
2013-01-23 20:58:00,30.6,23.0,29.79,North,0,1.3,4.0,73,0.00,,,0.00,WUHU216HW,2013-01-24 03:58:00,
2013-01-23 21:08:00,30.8,23.1,29.80,NW,315,0.4,0.9,73,0.00,,,0.00,WUHU216HW,2013-01-24 04:08:00,
2013-01-23 21:18:00,30.6,23.0,29.79,SE,135,0.4,3.1,73,0.00,,,0.00,WUHU216HW,2013-01-24 04:18:00,
2013-01-23 21:30:00,30.6,23.0,29.80,West,270,0.4,2.0,73,0.00,,,0.00,WUHU216HW,2013-01-24 04:30:00,
2013-01-23 21:40:00,31.0,23.3,29.79,NNW,338,0.4,1.3,73,0.00,,,0.00,WUHU216HW,2013-01-24 04:40:00,
2013-01-23 21:50:00,31.1,23.5,29.79,NE,45,1.8,1.8,73,0.00,,,0.00,WUHU216HW,2013-01-24 04:50:00,
2013-01-23 22:00:00,31.1,23.5,29.79,NNE,23,0.0,1.6,73,0.00,,,0.00,WUHU216HW,2013-01-24 05:00:00,
2013-01-23 22:11:00,31.0,23.3,29.79,WSW,248,0.0,2.0,73,0.00,,,0.00,WUHU216HW,2013-01-24 05:11:00,
2013-01-23 22:21:00,31.1,23.5,29.79,NNE,23,0.0,1.3,73,0.00,,,0.00,WUHU216HW,2013-01-24 05:21:00,
2013-01-23 22:31:00,31.0,23.6,29.79,ESE,113,1.8,2.0,74,0.00,,,0.00,WUHU216HW,2013-01-24 05:31:00,
2013-01-23 22:41:00,31.3,23.7,29.79,SSE,158,1.8,2.5,73,0.00,,,0.00,WUHU216HW,2013-01-24 05:41:00,
2013-01-23 22:51:00,31.5,23.5,29.79,South,180,3.4,4.0,72,0.00,,,0.00,WUHU216HW,2013-01-24 05:51:00,
2013-01-23 23:01:00,31.3,23.7,29.79,SSW,203,0.9,4.7,73,0.00,,,0.00,WUHU216HW,2013-01-24 06:01:00,
2013-01-23 23:11:00,31.0,23.3,29.79,South,180,3.8,3.8,73,0.00,,,0.00,WUHU216HW,2013-01-24 06:11:00,
2013-01-23 23:21:00,30.6,23.0,29.80,SSW,203,0.9,4.9,73,0.00,,,0.00,WUHU216HW,2013-01-24 06:21:00,
2013-01-23 23:31:00,30.6,23.2,29.80,East,90,1.1,3.4,74,0.00,,,0.00,WUHU216HW,2013-01-24 06:31:00,
2013-01-23 23:42:00,30.6,23.2,29.80,South,180,1.8,5.4,74,0.00,,,0.00,WUHU216HW,2013-01-24 06:42:00,
2013-01-23 23:52:00,30.6,23.2,29.79,South,180,2.0,2.0,74,0.00,,,0.00,WUHU216HW,2013-01-24 06:52:00,